Terminal Aerodrome Forecast
Issued by NWS Corpus Christi, TX

Home | Current Version | Previous Version | Text Only | Print | Product List | Glossary On
Versions: 1 2 3 4 5 6 7 8 9 10 11 12 13 14
000
FTUS44 KCRP 031721
TAFVCT
TAF
KVCT 031721Z 0318/0418 16015KT P6SM SCT040
     FM032100 14014G21KT P6SM BKN050
     FM040200 13010KT P6SM SCT020
     FM041500 14014KT P6SM SCT020 BKN040=

USA.gov is the U.S. government's official web portal to all federal, state and local government web resources and services.